Morses Line, Vermont
Current Conditions -  °F | °C
As of 3:55 AM on Wednesday 22 Oct 2014 (Local Time) from KFSO Reporting Station
Overcast Overcast  
Wind Chill:   Ceiling: 500
Heat Index:   Visibility: 7mi
Dew Point:   Wind: 3mph
Humidity: 98%   Direction: 350°N
Pressure: 30.12"   Gusts: NA
Location:  44.9656°N, 72.8975°W
Report Text: KFSO 220755Z AUTO 35003KT 7SM BKN005 BKN048 OVC085 07/06 A3012 RMK AO2 T00650062
Loading
Personal Weather Stations






























Interactive Weather Map
Tropical Storm Tracking
New forecast layout! Learn more

10-Day Weather Forecast

Advertisements
Track Severe Weather on mobile